Time;durP1;ratioP1;P1;durP2;ratioP2;P2;SDS_P1;SDS_P2;PMS_P1;PMS_P2;Temp;Humidity;BMP_temperature;BMP_pressure;BME280_temperature;BME280_humidity;BME280_pressure;Samples;Min_cycle;Max_cycle;Signal;HPM_P1;HPM_P2
2023/12/03 00:00:48;;;;;;;0.60;0.60;;;;;;;7.44;100.00;96208.25;5026151;28;20058;-65
2023/12/03 00:03:15;;;;;;;0.70;0.70;;;;;;;5.23;100.00;95879.16;5024560;28;20103;-66
2023/12/03 00:05:42;;;;;;;0.55;0.55;;;;;;;7.65;100.00;96263.66;5026008;28;20064;-64
2023/12/03 00:08:09;;;;;;;0.60;0.60;;;;;;;7.34;100.00;96195.09;5026198;28;20524;-65
2023/12/03 00:10:36;;;;;;;0.70;0.70;;;;;;;7.72;100.00;96266.53;5024255;28;20057;-66
2023/12/03 00:13:03;;;;;;;0.60;0.60;;;;;;;7.69;100.00;96261.78;5026161;28;20060;-65
2023/12/03 00:15:29;;;;;;;0.60;0.60;;;;;;;7.24;100.00;96228.00;5026060;28;20045;-66
2023/12/03 00:17:56;;;;;;;0.60;0.60;;;;;;;7.60;100.00;96276.97;5024550;28;20053;-65
2023/12/03 00:20:23;;;;;;;0.60;0.60;;;;;;;7.63;100.00;96268.75;5025774;28;20060;-65
2023/12/03 00:22:50;;;;;;;0.60;0.60;;;;;;;7.65;100.00;96260.91;5023524;28;20132;-66
2023/12/03 00:25:17;;;;;;;0.60;0.60;;;;;;;6.83;100.00;96136.03;5025486;28;20045;-66
2023/12/03 00:27:43;;;;;;;0.60;0.60;;;;;;;7.61;100.00;96254.56;5025997;28;20405;-65
2023/12/03 00:30:11;;;;;;;0.60;0.60;;;;;;;7.64;100.00;96248.31;5025636;28;21090;-65
2023/12/03 00:32:38;;;;;;;0.60;0.60;;;;;;;7.63;100.00;96274.25;5025596;28;20061;-65
2023/12/03 00:35:05;;;;;;;0.60;0.60;;;;;;;7.65;100.00;96277.44;5024107;28;20487;-65
2023/12/03 00:37:32;;;;;;;0.70;0.70;;;;;;;7.69;100.00;96269.25;5025290;28;20057;-65
2023/12/03 00:39:58;;;;;;;0.60;0.60;;;;;;;7.38;100.00;96229.00;5025308;28;20443;-66
2023/12/03 00:42:25;;;;;;;0.60;0.60;;;;;;;7.39;100.00;96230.59;5013784;28;20134;-67
2023/12/03 00:44:52;;;;;;;0.60;0.60;;;;;;;7.65;100.00;96282.97;5004494;28;20223;-65
2023/12/03 00:47:19;;;;;;;0.60;0.60;;;;;;;7.67;100.00;96280.63;5005283;28;20054;-66
2023/12/03 00:49:45;;;;;;;0.60;0.60;;;;;;;7.61;100.00;96282.13;5005292;28;20524;-66
2023/12/03 00:52:12;;;;;;;0.70;0.70;;;;;;;7.50;100.00;96286.66;5005490;28;20493;-66
2023/12/03 00:54:39;;;;;;;0.60;0.60;;;;;;;7.17;100.00;96234.16;5005761;28;20331;-67
2023/12/03 00:57:06;;;;;;;0.70;0.70;;;;;;;7.36;100.00;96280.13;5004006;28;20804;-65
2023/12/03 00:59:32;;;;;;;0.60;0.60;;;;;;;7.04;100.00;96241.03;5005138;28;20081;-66
2023/12/03 01:02:00;;;;;;;0.70;0.70;;;;;;;7.14;100.00;96250.63;5005561;28;20058;-66
2023/12/03 01:04:27;;;;;;;0.70;0.70;;;;;;;7.34;100.00;96293.47;5005106;28;20112;-65
2023/12/03 01:06:54;;;;;;;0.60;0.60;;;;;;;7.25;100.00;96290.97;5005466;28;20135;-65
2023/12/03 01:09:21;;;;;;;0.60;0.60;;;;;;;6.98;100.00;96245.25;5003898;28;20050;-66
2023/12/03 01:11:48;;;;;;;0.70;0.70;;;;;;;7.15;100.00;96291.56;5005021;28;20593;-66
2023/12/03 01:14:15;;;;;;;0.60;0.60;;;;;;;6.68;100.00;96208.53;5004968;28;20046;-65
2023/12/03 01:16:42;;;;;;;0.60;0.60;;;;;;;7.11;100.00;96287.16;5005139;28;20045;-66
2023/12/03 01:19:08;;;;;;;0.60;0.60;;;;;;;6.87;100.00;96247.00;5004710;28;20519;-64
2023/12/03 01:21:35;;;;;;;0.60;0.60;;;;;;;7.13;100.00;96291.13;5004809;28;21221;-65
2023/12/03 01:24:02;;;;;;;0.60;0.60;;;;;;;7.24;100.00;96310.63;5004878;28;20054;-64
2023/12/03 01:26:29;;;;;;;0.60;0.60;;;;;;;7.20;100.00;96310.53;5004747;28;20062;-65
2023/12/03 01:28:57;;;;;;;0.70;0.70;;;;;;;7.22;100.00;96308.19;5003440;28;20065;-65
2023/12/03 01:31:24;;;;;;;0.60;0.60;;;;;;;6.57;100.00;96214.97;5003229;28;20501;-65
2023/12/03 01:33:51;;;;;;;0.60;0.60;;;;;;;7.04;100.00;96289.78;5003428;28;20085;-65
2023/12/03 01:36:18;;;;;;;0.60;0.60;;;;;;;7.15;100.00;96297.06;5003263;28;20072;-65
2023/12/03 01:38:44;;;;;;;0.60;0.60;;;;;;;7.23;100.00;96304.28;5004864;28;20081;-65
2023/12/03 01:41:11;;;;;;;0.60;0.60;;;;;;;6.77;100.00;96214.56;5004659;28;20056;-65
2023/12/03 01:43:52;;;;;;;0.60;0.60;;;;;;;7.15;100.00;96274.22;5003503;28;20108;-65
2023/12/03 01:46:20;;;;;;;0.60;0.60;;;;;;;7.03;100.00;96255.16;5004424;28;20063;-65
2023/12/03 01:48:48;;;;;;;0.60;0.60;;;;;;;6.68;100.00;96189.25;5004799;28;20141;-65
2023/12/03 01:51:15;;;;;;;0.60;0.60;;;;;;;7.33;100.00;96294.63;5004908;28;20058;-65
2023/12/03 01:53:43;;;;;;;0.60;0.60;;;;;;;7.39;100.00;96291.19;5004689;28;20056;-65
2023/12/03 01:56:11;;;;;;;0.60;0.60;;;;;;;7.47;100.00;96298.44;5016661;28;20413;-65
2023/12/03 01:58:38;;;;;;;0.60;0.60;;;;;;;7.19;100.00;96264.88;5024856;28;20113;-65
2023/12/03 02:01:06;;;;;;;0.60;0.60;;;;;;;7.36;100.00;96308.47;5022957;28;20057;-64
2023/12/03 02:03:33;;;;;;;0.60;0.60;;;;;;;7.28;100.00;96316.97;5023001;28;20053;-67
2023/12/03 02:06:04;;;;;;;0.60;0.60;;;;;;;7.28;100.00;96314.22;5023698;28;20056;-65
2023/12/03 02:08:32;;;;;;;0.60;0.60;;;;;;;7.32;100.00;96313.09;5024242;28;20080;-65
2023/12/03 02:10:59;;;;;;;0.60;0.60;;;;;;;7.22;100.00;96307.41;5023898;28;20132;-64
2023/12/03 02:13:29;;;;;;;0.60;0.60;;;;;;;6.98;100.00;96267.28;5024379;28;20053;-65
2023/12/03 02:15:56;;;;;;;0.60;0.60;;;;;;;7.33;100.00;96303.66;5022548;28;20085;-67
2023/12/03 02:18:26;;;;;;;0.60;0.60;;;;;;;7.35;100.00;96312.38;5022564;28;20064;-65
2023/12/03 02:20:56;;;;;;;0.60;0.60;;;;;;;7.25;100.00;96306.69;5024099;28;20147;-65
2023/12/03 02:23:23;;;;;;;0.60;0.60;;;;;;;7.17;100.00;96293.94;5024286;28;20085;-64
2023/12/03 02:25:51;;;;;;;0.60;0.60;;;;;;;7.20;100.00;96294.03;5024037;28;20053;-66
2023/12/03 02:28:18;;;;;;;0.60;0.60;;;;;;;7.20;100.00;96288.50;5024180;28;20141;-65
2023/12/03 02:30:45;;;;;;;0.60;0.60;;;;;;;7.39;100.00;96313.25;5024008;28;20248;-65
2023/12/03 02:33:12;;;;;;;0.60;0.60;;;;;;;7.44;100.00;96293.66;5024383;28;20041;-65
2023/12/03 02:35:38;;;;;;;0.70;0.70;;;;;;;7.50;100.00;96292.19;5024204;28;20057;-65
2023/12/03 02:38:05;;;;;;;0.60;0.60;;;;;;;7.57;100.00;96300.53;5023465;28;20436;-64
2023/12/03 02:40:32;;;;;;;0.65;0.65;;;;;;;7.64;100.00;96294.34;5022591;28;20057;-64
2023/12/03 02:43:00;;;;;;;0.70;0.70;;;;;;;7.44;100.00;96260.59;5024209;28;20095;-65
2023/12/03 02:45:26;;;;;;;0.60;0.60;;;;;;;7.69;100.00;96294.84;5025483;28;20068;-65
2023/12/03 02:47:53;;;;;;;0.60;0.60;;;;;;;7.64;100.00;96303.44;5026143;28;20054;-65
2023/12/03 02:50:20;;;;;;;0.63;0.63;;;;;;;7.38;100.00;96311.63;5027579;28;20064;-64
2023/12/03 02:52:47;;;;;;;0.50;0.50;;;;;;;7.15;100.00;96321.84;5027461;28;20479;-65
2023/12/03 02:55:14;;;;;;;0.60;0.60;;;;;;;7.12;100.00;96319.84;5022475;28;20061;-65
2023/12/03 02:57:41;;;;;;;0.60;0.60;;;;;;;6.46;100.00;96245.03;5005882;28;20057;-65
2023/12/03 03:00:08;;;;;;;0.60;0.60;;;;;;;6.96;100.00;96308.13;5007529;28;20053;-65
2023/12/03 03:02:36;;;;;;;0.60;0.60;;;;;;;6.90;100.00;96311.53;5007557;28;20588;-65
2023/12/03 03:05:05;;;;;;;0.60;0.60;;;;;;;6.95;100.00;96309.28;5007203;28;20049;-66
2023/12/03 03:07:32;;;;;;;0.70;0.70;;;;;;;6.90;100.00;96306.03;5005487;28;20489;-65
2023/12/03 03:09:59;;;;;;;0.60;0.60;;;;;;;6.94;100.00;96307.69;5007671;28;20136;-64
2023/12/03 03:12:26;;;;;;;0.60;0.60;;;;;;;7.15;100.00;96313.59;5005527;28;20046;-66
2023/12/03 03:14:53;;;;;;;0.57;0.57;;;;;;;7.24;100.00;96316.13;5007169;28;20046;-65
2023/12/03 03:17:19;;;;;;;0.60;0.60;;;;;;;7.16;100.00;96315.19;5005626;28;20058;-65
2023/12/03 03:19:46;;;;;;;0.50;0.50;;;;;;;7.04;100.00;96307.09;5007078;28;20052;-66
2023/12/03 03:22:13;;;;;;;0.65;0.65;;;;;;;7.12;100.00;96335.56;5005606;28;20333;-65
2023/12/03 03:24:41;;;;;;;0.60;0.60;;;;;;;7.17;100.00;96327.81;5006987;28;20433;-64
2023/12/03 03:27:08;;;;;;;0.60;0.60;;;;;;;7.31;100.00;96322.53;5005652;28;20527;-65
2023/12/03 03:29:35;;;;;;;0.60;0.60;;;;;;;6.82;100.00;96282.28;5005556;28;20050;-65
2023/12/03 03:32:09;;;;;;;0.60;0.60;;;;;;;6.96;100.00;96294.34;5006557;28;20049;-65
2023/12/03 03:34:36;;;;;;;0.60;0.60;;;;;;;6.48;100.00;96215.19;5005318;28;20053;-65
2023/12/03 03:37:03;;;;;;;0.60;0.60;;;;;;;7.11;100.00;96326.47;5006580;28;20495;-65
2023/12/03 03:39:29;;;;;;;0.60;0.60;;;;;;;6.67;100.00;96250.94;5006852;28;20062;-65
2023/12/03 03:41:56;;;;;;;0.60;0.60;;;;;;;6.98;100.00;96319.56;5006571;28;20187;-64
2023/12/03 03:44:23;;;;;;;0.65;0.65;;;;;;;7.06;100.00;96318.56;5006534;28;20057;-65
2023/12/03 03:46:50;;;;;;;0.60;0.60;;;;;;;6.94;100.00;96302.19;5006451;28;20050;-65
2023/12/03 03:49:17;;;;;;;0.60;0.60;;;;;;;6.76;100.00;96265.28;5006593;28;20050;-64
2023/12/03 03:51:44;;;;;;;0.60;0.60;;;;;;;7.02;100.00;96320.44;5006302;28;20497;-65
2023/12/03 03:54:11;;;;;;;0.60;0.60;;;;;;;6.26;100.00;96199.44;5005146;28;20597;-65
2023/12/03 03:56:38;;;;;;;0.60;0.60;;;;;;;7.09;100.00;96337.09;5019827;28;20049;-65
2023/12/03 03:59:05;;;;;;;0.50;0.50;;;;;;;7.14;100.00;96336.78;5025811;28;20057;-65
2023/12/03 04:01:32;;;;;;;0.60;0.60;;;;;;;7.10;100.00;96338.66;5026062;28;20049;-65
2023/12/03 04:03:59;;;;;;;0.60;0.60;;;;;;;6.62;100.00;96278.78;5025711;28;20057;-66
2023/12/03 04:06:26;;;;;;;0.60;0.60;;;;;;;6.90;100.00;96312.34;5025704;28;20583;-65
2023/12/03 04:08:53;;;;;;;0.68;0.68;;;;;;;7.05;100.00;96330.72;5024696;28;20132;-65
2023/12/03 04:11:19;;;;;;;0.60;0.60;;;;;;;7.00;100.00;96333.75;5025487;28;20049;-65
2023/12/03 04:13:46;;;;;;;0.60;0.60;;;;;;;7.05;100.00;96325.19;5025650;28;20670;-65
2023/12/03 04:16:21;;;;;;;0.57;0.57;;;;;;;4.45;100.00;95916.00;5024139;28;20049;-65
2023/12/03 04:18:48;;;;;;;0.60;0.60;;;;;;;7.08;100.00;96357.50;5026120;28;20057;-65
2023/12/03 04:21:15;;;;;;;0.60;0.60;;;;;;;6.84;100.00;96302.00;5024463;28;20053;-65
2023/12/03 04:23:42;;;;;;;0.60;0.60;;;;;;;7.02;100.00;96347.97;5024424;28;20057;-65
2023/12/03 04:26:09;;;;;;;0.60;0.60;;;;;;;6.57;100.00;96303.81;5024196;28;20091;-67
2023/12/03 04:28:40;;;;;;;0.60;0.60;;;;;;;6.93;100.00;96366.66;5026159;28;20472;-65
2023/12/03 04:31:16;;;;;;;0.57;0.57;;;;;;;6.36;100.00;96319.88;5023974;28;20060;-66
2023/12/03 04:33:43;;;;;;;0.50;0.50;;;;;;;6.68;100.00;96373.63;5025456;28;20091;-65
2023/12/03 04:36:11;;;;;;;0.50;0.50;;;;;;;6.40;100.00;96370.28;5025376;28;20049;-66
2023/12/03 04:38:37;;;;;;;0.60;0.60;;;;;;;6.39;100.00;96373.34;5023822;28;20092;-65
2023/12/03 04:41:04;;;;;;;0.50;0.50;;;;;;;6.50;100.00;96375.19;5025002;28;20162;-65
2023/12/03 04:43:31;;;;;;;0.57;0.57;;;;;;;6.31;100.00;96322.13;5025605;28;20527;-66
2023/12/03 04:46:02;;;;;;;0.50;0.50;;;;;;;6.59;100.00;96367.50;5025383;28;20053;-66
2023/12/03 04:48:29;;;;;;;0.50;0.50;;;;;;;6.55;100.00;96366.66;5025522;28;20049;-65
2023/12/03 04:50:57;;;;;;;0.50;0.50;;;;;;;6.69;100.00;96368.91;5025011;28;20136;-64
2023/12/03 04:53:24;;;;;;;0.60;0.60;;;;;;;6.28;100.00;96306.31;5025208;28;20966;-64
2023/12/03 04:55:51;;;;;;;0.50;0.50;;;;;;;6.71;100.00;96375.66;5020461;28;20061;-65
2023/12/03 04:58:17;;;;;;;0.60;0.60;;;;;;;6.87;100.00;96376.38;5005653;28;20057;-65
2023/12/03 05:00:45;;;;;;;0.50;0.50;;;;;;;6.88;100.00;96375.22;5005049;28;20061;-65
2023/12/03 05:03:11;;;;;;;0.60;0.60;;;;;;;6.88;100.00;96364.19;5005443;28;20112;-65
2023/12/03 05:05:38;;;;;;;0.60;0.60;;;;;;;6.92;100.00;96391.81;5004950;28;20539;-65
2023/12/03 05:08:06;;;;;;;0.60;0.60;;;;;;;6.86;100.00;96394.03;5004835;28;20077;-65
2023/12/03 05:10:33;;;;;;;0.60;0.60;;;;;;;6.81;100.00;96393.53;5004804;28;20505;-66
2023/12/03 05:13:00;;;;;;;0.60;0.60;;;;;;;6.80;100.00;96401.00;5005176;28;20133;-66
2023/12/03 05:15:26;;;;;;;0.52;0.52;;;;;;;6.86;100.00;96393.25;5005045;28;20050;-65
2023/12/03 05:17:53;;;;;;;0.57;0.57;;;;;;;6.90;100.00;96403.19;5004937;28;20129;-65
2023/12/03 05:20:20;;;;;;;0.50;0.50;;;;;;;7.01;100.00;96395.94;5004839;28;20563;-65
2023/12/03 05:22:47;;;;;;;0.60;0.60;;;;;;;6.89;100.00;96404.31;5015583;28;20049;-66
2023/12/03 05:25:14;;;;;;;0.60;0.60;;;;;;;6.52;100.00;96339.88;5023349;28;20147;-65
2023/12/03 05:27:41;;;;;;;0.50;0.50;;;;;;;6.68;100.00;96370.88;5024284;28;20382;-64
2023/12/03 05:30:08;;;;;;;0.60;0.60;;;;;;;6.99;100.00;96398.25;5024374;28;20478;-65
2023/12/03 05:32:35;;;;;;;0.70;0.70;;;;;;;6.67;100.00;96372.00;5024396;28;20052;-67
2023/12/03 05:35:02;;;;;;;0.60;0.60;;;;;;;7.02;100.00;96419.53;5024807;28;20496;-67
2023/12/03 05:37:29;;;;;;;0.60;0.60;;;;;;;7.03;100.00;96404.63;5024150;28;20061;-65
2023/12/03 05:39:56;;;;;;;0.60;0.60;;;;;;;7.10;100.00;96410.25;5024528;28;20485;-65
2023/12/03 05:42:23;;;;;;;0.70;0.70;;;;;;;6.97;100.00;96395.06;5023827;28;20144;-66
2023/12/03 05:44:49;;;;;;;0.60;0.60;;;;;;;7.28;100.00;96425.19;5024376;28;20153;-64
2023/12/03 05:47:16;;;;;;;0.60;0.60;;;;;;;5.26;100.00;96155.69;5022898;28;20061;-65
2023/12/03 05:49:43;;;;;;;0.57;0.57;;;;;;;7.17;100.00;96407.66;5023096;28;20443;-65
2023/12/03 05:52:10;;;;;;;0.60;0.60;;;;;;;7.14;100.00;96419.41;5023489;28;20192;-65
2023/12/03 05:54:37;;;;;;;0.60;0.60;;;;;;;7.29;100.00;96424.03;5023214;28;20057;-65
2023/12/03 05:57:04;;;;;;;0.60;0.60;;;;;;;7.07;100.00;96383.47;5022588;28;20045;-66
2023/12/03 05:59:30;;;;;;;0.60;0.60;;;;;;;7.02;100.00;96419.53;5022690;28;20604;-65
2023/12/03 06:01:58;;;;;;;0.60;0.60;;;;;;;6.45;100.00;96303.94;5022390;28;20064;-65
2023/12/03 06:04:25;;;;;;;0.70;0.70;;;;;;;7.25;100.00;96417.66;5022588;28;20598;-65
2023/12/03 06:06:51;;;;;;;0.60;0.60;;;;;;;6.83;100.00;96336.97;5023999;28;20064;-65
2023/12/03 06:09:18;;;;;;;0.60;0.60;;;;;;;7.45;100.00;96410.94;5024041;28;20088;-65
2023/12/03 06:11:45;;;;;;;0.60;0.60;;;;;;;7.51;100.00;96420.50;5023722;28;20578;-66
2023/12/03 06:14:12;;;;;;;0.70;0.70;;;;;;;7.58;100.00;96420.66;5022706;28;20534;-66
2023/12/03 06:16:39;;;;;;;0.60;0.60;;;;;;;7.20;100.00;96349.09;5022897;28;20049;-66
2023/12/03 06:19:06;;;;;;;0.60;0.60;;;;;;;7.58;100.00;96398.59;5024173;28;20057;-66
2023/12/03 06:21:33;;;;;;;0.70;0.70;;;;;;;7.38;100.00;96350.19;5026188;28;20053;-65
2023/12/03 06:23:59;;;;;;;0.70;0.70;;;;;;;7.94;100.00;96412.97;5027886;28;20053;-65
2023/12/03 06:26:26;;;;;;;0.70;0.70;;;;;;;7.91;100.00;96427.50;5027990;28;20089;-66
2023/12/03 06:28:53;;;;;;;0.60;0.60;;;;;;;7.95;100.00;96425.63;5027706;28;20049;-66
2023/12/03 06:31:20;;;;;;;0.65;0.65;;;;;;;7.95;100.00;96420.88;5027482;28;20096;-65
2023/12/03 06:33:46;;;;;;;0.70;0.70;;;;;;;8.02;100.00;96428.47;5027905;28;20049;-66
2023/12/03 06:36:14;;;;;;;0.70;0.70;;;;;;;8.16;100.00;96428.72;5027618;28;20058;-66
2023/12/03 06:38:40;;;;;;;0.60;0.60;;;;;;;8.37;100.00;96437.34;5025945;28;20212;-65
2023/12/03 06:41:07;;;;;;;0.60;0.60;;;;;;;8.12;100.00;96392.81;5027250;28;20060;-65
2023/12/03 06:43:34;;;;;;;0.70;0.70;;;;;;;5.80;100.00;96156.47;5027662;28;20053;-65
2023/12/03 06:46:01;;;;;;;0.68;0.68;;;;;;;8.13;100.00;96457.03;5026286;28;20057;-65
2023/12/03 06:48:28;;;;;;;0.70;0.70;;;;;;;7.81;100.00;96409.63;5027827;28;20515;-65
2023/12/03 06:50:55;;;;;;;0.70;0.70;;;;;;;8.08;100.00;96454.59;5027448;28;20108;-66
2023/12/03 06:53:21;;;;;;;0.60;0.60;;;;;;;8.26;100.00;96455.72;5025871;28;20057;-66
2023/12/03 06:55:48;;;;;;;0.60;0.60;;;;;;;8.33;100.00;96472.41;5026889;28;20054;-67
2023/12/03 06:58:15;;;;;;;0.70;0.70;;;;;;;8.46;100.00;96473.75;5027477;28;20049;-65
2023/12/03 07:00:42;;;;;;;0.70;0.70;;;;;;;8.54;100.00;96469.94;5027541;28;20135;-64
2023/12/03 07:03:09;;;;;;;0.70;0.70;;;;;;;8.61;100.00;96479.16;5027729;28;20057;-64
2023/12/03 07:05:36;;;;;;;0.70;0.70;;;;;;;8.59;100.00;96469.63;5026142;28;20140;-63
2023/12/03 07:08:03;;;;;;;0.70;0.70;;;;;;;8.77;100.00;96481.75;5025798;28;20053;-64
2023/12/03 07:10:30;;;;;;;0.70;0.70;;;;;;;8.85;100.00;96472.41;5026796;28;20331;-65
2023/12/03 07:12:57;;;;;;;0.70;0.70;;;;;;;9.05;100.00;96479.38;5027330;28;20061;-67
2023/12/03 07:15:24;;;;;;;0.70;0.70;;;;;;;8.53;100.00;96399.38;5025600;28;20544;-65
2023/12/03 07:17:51;;;;;;;0.80;0.80;;;;;;;9.15;100.00;96492.56;5027016;28;20093;-65
2023/12/03 07:20:20;;;;;;;0.80;0.80;;;;;;;9.02;99.80;96493.94;5026636;28;20091;-66
2023/12/03 07:22:47;;;;;;;0.75;0.75;;;;;;;9.00;100.00;96493.53;5026969;28;20137;-65
2023/12/03 07:25:14;;;;;;;0.70;0.70;;;;;;;9.12;99.98;96488.56;5025171;28;20053;-64
2023/12/03 07:27:41;;;;;;;0.80;0.80;;;;;;;9.13;98.35;96484.66;5025507;28;20064;-64
2023/12/03 07:30:08;;;;;;;0.70;0.70;;;;;;;9.13;97.49;96483.84;5026803;28;20128;-65
2023/12/03 07:32:34;;;;;;;0.70;0.70;;;;;;;9.08;99.03;96492.44;5026444;28;20057;-66
2023/12/03 07:35:01;;;;;;;0.70;0.70;;;;;;;9.23;98.92;96506.06;5026727;28;20064;-65
2023/12/03 07:37:29;;;;;;;0.80;0.80;;;;;;;9.20;99.60;96492.22;5024678;28;20057;-64
2023/12/03 07:39:56;;;;;;;0.80;0.80;;;;;;;7.76;100.00;96236.28;5026191;28;20144;-65
2023/12/03 07:42:25;;;;;;;0.70;0.70;;;;;;;9.52;100.00;96484.31;5026099;28;20096;-64
2023/12/03 07:44:52;;;;;;;0.80;0.80;;;;;;;9.62;100.00;96487.22;5025175;28;20065;-65
2023/12/03 07:47:18;;;;;;;0.80;0.80;;;;;;;9.68;100.00;96482.13;5026372;28;20064;-66
2023/12/03 07:49:45;;;;;;;0.80;0.80;;;;;;;9.76;100.00;96484.63;5025108;28;20547;-65
2023/12/03 07:52:12;;;;;;;0.70;0.70;;;;;;;9.96;100.00;96477.72;5025149;28;20050;-65
2023/12/03 07:54:41;;;;;;;0.80;0.80;;;;;;;10.24;100.00;96483.53;5024925;28;20057;-64
2023/12/03 07:57:08;;;;;;;0.80;0.80;;;;;;;10.36;100.00;96474.16;5026306;28;20065;-64
2023/12/03 07:59:34;;;;;;;0.80;0.80;;;;;;;10.77;100.00;96488.72;5026281;28;20046;-65
2023/12/03 08:02:06;;;;;;;0.80;0.80;;;;;;;10.98;100.00;96488.88;5026219;28;20062;-64
2023/12/03 08:04:32;;;;;;;0.80;0.80;;;;;;;11.13;100.00;96485.78;5024315;28;20569;-65
2023/12/03 08:06:59;;;;;;;0.90;0.90;;;;;;;11.03;100.00;96446.94;5024511;28;20049;-64
2023/12/03 08:09:26;;;;;;;0.85;0.85;;;;;;;11.46;100.00;96487.56;5026057;28;20559;-64
2023/12/03 08:11:53;;;;;;;0.85;0.85;;;;;;;11.74;100.00;96494.06;5025911;28;20049;-64
2023/12/03 08:14:20;;;;;;;0.88;0.88;;;;;;;11.80;100.00;96502.78;5024404;28;20542;-64
2023/12/03 08:16:47;;;;;;;0.90;0.90;;;;;;;12.00;100.00;96510.38;5025662;28;20045;-66
2023/12/03 08:19:13;;;;;;;0.90;0.90;;;;;;;12.16;100.00;96504.47;5025642;28;20068;-65
2023/12/03 08:21:40;;;;;;;0.90;0.90;;;;;;;12.21;100.00;96512.41;5025584;28;20060;-65
2023/12/03 08:24:07;;;;;;;0.90;0.90;;;;;;;12.05;98.39;96511.97;5025437;28;20057;-65
2023/12/03 08:26:34;;;;;;;0.90;0.90;;;;;;;11.82;97.98;96505.97;5024270;28;20104;-65
2023/12/03 08:29:01;;;;;;;1.00;1.00;;;;;;;12.04;96.13;96513.16;5023986;28;20049;-65
2023/12/03 08:31:27;;;;;;;0.95;0.95;;;;;;;12.02;95.13;96515.53;5024011;28;20045;-65
2023/12/03 08:33:54;;;;;;;0.95;0.95;;;;;;;11.88;95.19;96521.03;5025491;28;20049;-64
2023/12/03 08:36:21;;;;;;;0.90;0.90;;;;;;;11.63;94.61;96464.69;5023520;28;20068;-64
2023/12/03 08:38:48;;;;;;;0.95;0.95;;;;;;;11.93;93.57;96509.56;5014311;28;20488;-65
2023/12/03 08:41:15;;;;;;;0.90;0.90;;;;;;;12.12;93.75;96532.22;5014439;28;20440;-64
2023/12/03 08:43:42;;;;;;;0.90;0.90;;;;;;;11.97;93.27;96460.41;5024437;28;20501;-66
2023/12/03 08:46:09;;;;;;;0.90;0.90;;;;;;;11.77;93.06;96453.63;5024813;28;20057;-65
2023/12/03 08:48:36;;;;;;;0.93;0.93;;;;;;;11.84;96.38;96509.13;5025090;28;20119;-65
2023/12/03 08:51:03;;;;;;;0.90;0.90;;;;;;;12.10;95.54;96519.91;5023360;28;20059;-66
2023/12/03 08:53:30;;;;;;;1.05;1.05;;;;;;;12.34;94.48;96519.19;5025171;28;20459;-67
2023/12/03 08:55:59;;;;;;;1.00;1.00;;;;;;;12.43;93.98;96514.03;5023420;28;20057;-66
2023/12/03 08:58:26;;;;;;;1.00;1.00;;;;;;;11.52;97.62;96477.69;5025434;28;20137;-65
2023/12/03 09:00:53;;;;;;;1.00;1.00;;;;;;;12.11;96.12;96493.72;5024777;28;20063;-65
2023/12/03 09:03:20;;;;;;;1.00;1.00;;;;;;;12.50;95.30;96519.59;5023240;28;20144;-66
2023/12/03 09:05:47;;;;;;;0.90;0.90;;;;;;;12.63;94.80;96523.56;5024621;28;20509;-65
2023/12/03 09:08:15;;;;;;;1.00;1.00;;;;;;;11.29;94.47;96310.81;5019602;28;20051;-62
2023/12/03 09:10:42;;;;;;;1.10;1.10;;;;;;;12.77;93.87;96534.69;5006328;28;20057;-70
2023/12/03 09:13:09;;;;;;;1.00;1.00;;;;;;;12.04;93.02;96407.69;5007204;28;20540;-60
2023/12/03 09:15:36;;;;;;;1.00;1.00;;;;;;;11.97;92.64;96397.38;5023757;28;20056;-69
2023/12/03 09:18:03;;;;;;;1.10;1.10;;;;;;;12.60;92.59;96479.91;5024105;28;20508;-65
2023/12/03 09:20:30;;;;;;;1.00;1.00;;;;;;;12.78;91.79;96486.25;5016174;28;20054;-61
2023/12/03 09:22:56;;;;;;;1.10;1.10;;;;;;;12.68;91.18;96439.81;5004641;28;20057;-64
2023/12/03 09:25:23;;;;;;;1.10;1.10;;;;;;;12.90;89.45;96466.38;5022743;28;20064;-62
2023/12/03 09:27:50;;;;;;;1.00;1.00;;;;;;;12.66;89.23;96433.84;5024704;28;20057;-70
2023/12/03 09:30:17;;;;;;;1.10;1.10;;;;;;;12.82;89.96;96450.13;5021569;28;20049;-70
2023/12/03 09:32:45;;;;;;;1.10;1.10;;;;;;;12.40;89.98;96391.81;5016309;28;20049;-68
2023/12/03 09:35:12;;;;;;;1.13;1.13;;;;;;;13.16;90.38;96495.78;5007257;28;20060;-67
2023/12/03 09:37:39;;;;;;;1.20;1.20;;;;;;;11.53;89.34;96221.31;5004804;28;20080;-70
2023/12/03 09:40:06;;;;;;;1.00;1.00;;;;;;;13.41;89.73;96508.44;5015355;28;20046;-62
2023/12/03 09:42:36;;;;;;;1.13;1.13;;;;;;;13.65;89.32;96502.00;5002884;28;20109;-68
2023/12/03 09:45:04;;;;;;;1.23;1.23;;;;;;;13.98;88.39;96497.06;5019681;28;20116;-66
2023/12/03 09:47:34;;;;;;;1.20;1.20;;;;;;;13.69;86.15;96441.53;5023362;28;20527;-71
2023/12/03 09:50:04;;;;;;;1.30;1.30;;;;;;;13.72;84.32;96394.63;5036974;28;20555;-72
2023/12/03 09:52:34;;;;;;;1.13;1.13;;;;;;;14.69;83.23;96503.81;5003142;28;20053;-64
2023/12/03 09:55:03;;;;;;;1.20;1.20;;;;;;;14.22;80.70;96416.16;5016249;28;20049;-75
2023/12/03 09:57:31;;;;;;;1.30;1.30;;;;;;;14.76;80.20;96487.03;5024916;28;20049;-61
2023/12/03 10:00:00;;;;;;;1.25;1.25;;;;;;;14.97;78.70;96503.56;5028507;28;20050;-61
2023/12/03 10:02:29;;;;;;;1.13;1.13;;;;;;;15.05;78.11;96510.66;5026594;28;20062;-60
2023/12/03 10:04:57;;;;;;;1.23;1.23;;;;;;;15.15;75.94;96509.78;5028546;28;20057;-61
2023/12/03 10:07:28;;;;;;;1.40;1.40;;;;;;;15.09;75.90;96511.44;5028314;28;20088;-63
2023/12/03 10:10:00;;;;;;;1.25;1.25;;;;;;;14.97;76.08;96514.72;5028241;28;20053;-62
2023/12/03 10:12:40;;;;;;;1.10;1.10;;;;;;;15.18;75.65;96508.97;5027604;28;20053;-62
2023/12/03 10:15:09;;;;;;;1.10;1.10;;;;;;;15.10;75.55;96518.59;5027978;28;20092;-60
2023/12/03 10:17:38;;;;;;;1.40;1.40;;;;;;;15.09;76.59;96514.22;5026280;28;20060;-62
2023/12/03 10:20:20;;;;;;;1.20;1.20;;;;;;;15.02;77.23;96511.50;5026458;28;20115;-61
2023/12/03 10:22:51;;;;;;;1.27;1.27;;;;;;;15.00;75.19;96519.50;5028023;28;20138;-66
2023/12/03 10:25:36;;;;;;;1.20;1.20;;;;;;;14.64;74.61;96526.53;5027769;28;20063;-62
2023/12/03 10:28:04;;;;;;;1.10;1.10;;;;;;;14.26;74.74;96530.38;5027719;28;20045;-61
2023/12/03 10:30:33;;;;;;;1.30;1.30;;;;;;;14.04;76.16;96523.28;5027969;28;20061;-63
2023/12/03 10:32:59;;;;;;;1.25;1.25;;;;;;;13.68;76.56;96453.88;5026555;28;20095;-61
2023/12/03 10:35:33;;;;;;;1.10;1.10;;;;;;;13.88;77.88;96520.22;5026901;28;20057;-61
2023/12/03 10:38:00;;;;;;;1.25;1.25;;;;;;;13.79;78.03;96511.47;5026004;28;20140;-61
2023/12/03 10:40:32;;;;;;;1.20;1.20;;;;;;;13.85;78.19;96526.59;5027317;28;20088;-61
2023/12/03 10:43:01;;;;;;;1.00;1.00;;;;;;;13.89;78.07;96521.78;5027565;28;20060;-63
2023/12/03 10:45:29;;;;;;;1.10;1.10;;;;;;;13.76;77.50;96513.09;5027414;28;20057;-63
2023/12/03 10:48:00;;;;;;;1.15;1.15;;;;;;;13.49;77.08;96461.91;5027775;28;20492;-63
2023/12/03 10:50:29;;;;;;;1.10;1.10;;;;;;;13.98;76.31;96533.28;5025909;28;20052;-62
2023/12/03 10:53:01;;;;;;;1.10;1.10;;;;;;;13.94;76.36;96519.34;5027593;28;20144;-61
2023/12/03 10:55:28;;;;;;;0.93;0.93;;;;;;;14.04;76.37;96515.72;5027216;28;20049;-61
2023/12/03 10:58:05;;;;;;;1.00;1.00;;;;;;;14.14;75.53;96528.81;5007629;28;20050;-60
2023/12/03 11:00:43;;;;;;;1.20;1.20;;;;;;;14.01;74.90;96519.34;5007509;28;20046;-62
2023/12/03 11:03:20;;;;;;;1.13;1.13;;;;;;;13.87;74.16;96529.75;5007541;28;20413;-60
2023/12/03 11:05:53;;;;;;;1.30;1.30;;;;;;;13.88;76.18;96559.97;5006619;28;20166;-62
2023/12/03 11:08:21;;;;;;;1.10;1.10;;;;;;;13.85;75.31;96534.94;5007394;28;20504;-62
2023/12/03 11:10:52;;;;;;;1.05;1.05;;;;;;;13.81;74.52;96539.72;5007455;28;20064;-61
2023/12/03 11:13:21;;;;;;;1.10;1.10;;;;;;;13.93;73.24;96561.53;5005763;28;20139;-63
2023/12/03 11:15:59;;;;;;;1.30;1.30;;;;;;;12.47;72.87;96333.50;5007378;28;20673;-62
2023/12/03 11:18:27;;;;;;;1.20;1.20;;;;;;;14.10;73.26;96566.25;5007488;28;20053;-61
2023/12/03 11:21:10;;;;;;;1.10;1.10;;;;;;;13.40;72.13;96512.41;5005922;28;20056;-61
2023/12/03 11:23:57;;;;;;;1.10;1.10;;;;;;;13.81;73.18;96560.00;5007221;28;20531;-61
2023/12/03 11:26:25;;;;;;;1.08;1.08;;;;;;;13.39;72.81;96533.06;5005961;28;20058;-61
2023/12/03 11:28:53;;;;;;;1.02;1.02;;;;;;;13.54;72.98;96544.97;5005939;28;20045;-62
2023/12/03 11:31:24;;;;;;;1.10;1.10;;;;;;;13.57;71.41;96533.84;5007022;28;20053;-60
2023/12/03 11:33:55;;;;;;;1.10;1.10;;;;;;;13.67;71.31;96538.56;5007392;28;20053;-60
2023/12/03 11:36:47;;;;;;;1.10;1.10;;;;;;;13.30;72.56;96563.31;5005509;28;20061;-61